Aviation Digital Data Service (ADDS)

Output produced by METARs form (0221 UTC 21 August 2014)
found at http://aviationweather.gov/adds/metars/
 
METAR text: KSPB 210153Z AUTO 36009KT 10SM CLR 22/09 A2996 RMK AO2 SLP145 T02220094
Conditions at: KSPB (SCAPPOOSE , OR, US) observed 0153 UTC 21 August 2014
Temperature: 22.2°C (72°F)
Dewpoint: 9.4°C (49°F) [RH = 44%]
Pressure (altimeter): 29.96 inches Hg (1014.6 mb)
[Sea-level pressure: 1014.5 mb]
Winds: from the N (360 degrees) at 10 MPH (9 knots; 4.7 m/s)
Visibility: 10 or more miles (16+ km)
Ceiling: at least 12,000 feet AGL
Clouds: sky clear below 12,000 feet AGL
Weather: automated observation with no human augmentation;
there may or may not be significant weather present at this time

METAR text: KSPB 210053Z AUTO 36012KT 10SM CLR 24/09 A2996 RMK AO2 SLP144 T02390089
Conditions at: KSPB (SCAPPOOSE , OR, US) observed 0053 UTC 21 August 2014
Temperature: 23.9°C (75°F)
Dewpoint: 8.9°C (48°F) [RH = 38%]
Pressure (altimeter): 29.96 inches Hg (1014.6 mb)
[Sea-level pressure: 1014.4 mb]
Winds: from the N (360 degrees) at 14 MPH (12 knots; 6.2 m/s)
Visibility: 10 or more miles (16+ km)
Ceiling: at least 12,000 feet AGL
Clouds: sky clear below 12,000 feet AGL
Weather: automated observation with no human augmentation;
there may or may not be significant weather present at this time